Time;durP1;ratioP1;P1;durP2;ratioP2;P2;SDS_P1;SDS_P2;PMS_P1;PMS_P2;Temp;Humidity;BMP_temperature;BMP_pressure;BME280_temperature;BME280_humidity;BME280_pressure;Samples;Min_cycle;Max_cycle;Signal;HPM_P1;HPM_P2
2024/02/14 00:00:15;;;;;;;24.92;12.93;;;7.00;99.90;;;;;;5007256;28;20060;-71
2024/02/14 00:02:43;;;;;;;33.20;14.65;;;7.00;99.90;;;;;;4991837;28;20065;-70
2024/02/14 00:05:10;;;;;;;25.88;15.05;;;7.00;99.90;;;;;;4987864;28;20031;-67
2024/02/14 00:07:37;;;;;;;24.02;13.32;;;6.90;99.90;;;;;;4987300;28;20054;-67
2024/02/14 00:10:03;;;;;;;28.80;14.15;;;6.90;99.90;;;;;;4967343;28;20022;-67
2024/02/14 00:12:28;;;;;;;26.48;13.02;;;7.00;99.90;;;;;;4988473;28;20049;-67
2024/02/14 00:14:54;;;;;;;31.10;14.03;;;6.90;99.90;;;;;;4987925;28;20034;-68
2024/02/14 00:17:20;;;;;;;25.92;13.65;;;7.00;99.90;;;;;;4987534;28;20029;-70
2024/02/14 00:19:45;;;;;;;25.93;13.77;;;7.00;99.90;;;;;;4987280;28;20042;-71
2024/02/14 00:22:11;;;;;;;25.20;13.73;;;7.00;99.90;;;;;;4988042;28;20031;-67
2024/02/14 00:24:36;;;;;;;25.33;13.57;;;7.00;99.90;;;;;;4987340;28;20041;-68
2024/02/14 00:27:03;;;;;;;31.57;14.03;;;7.00;99.90;;;;;;4987597;28;20475;-69
2024/02/14 00:29:28;;;;;;;26.35;14.98;;;7.00;99.90;;;;;;4987003;28;20117;-67
2024/02/14 00:31:54;;;;;;;30.95;13.82;;;7.00;99.90;;;;;;4987148;28;20113;-70
2024/02/14 00:34:20;;;;;;;28.43;14.23;;;7.00;99.90;;;;;;4987502;28;20027;-66
2024/02/14 00:36:46;;;;;;;26.27;13.68;;;7.00;99.90;;;;;;4976422;28;20043;-66
2024/02/14 00:39:12;;;;;;;30.60;14.30;;;7.00;99.90;;;;;;4967593;28;20110;-68
2024/02/14 00:41:37;;;;;;;27.73;14.40;;;6.90;99.90;;;;;;4967599;28;20065;-67
2024/02/14 00:44:03;;;;;;;27.27;15.13;;;6.90;99.90;;;;;;4967889;28;20419;-67
2024/02/14 00:46:29;;;;;;;26.00;13.30;;;7.00;99.90;;;;;;4968069;28;20106;-70
2024/02/14 00:48:55;;;;;;;33.08;14.98;;;7.00;99.90;;;;;;4968243;28;20447;-71
2024/02/14 00:51:22;;;;;;;26.63;14.98;;;7.00;99.90;;;;;;4968358;28;20043;-70
2024/02/14 00:53:47;;;;;;;25.90;14.85;;;7.00;99.90;;;;;;4967651;28;20031;-67
2024/02/14 00:56:13;;;;;;;29.40;13.60;;;7.10;99.90;;;;;;4970022;28;20103;-70
2024/02/14 00:58:39;;;;;;;30.20;14.10;;;7.10;99.90;;;;;;4968057;28;20035;-68
2024/02/14 01:01:05;;;;;;;29.73;13.93;;;7.00;99.90;;;;;;4969725;28;20489;-68
2024/02/14 01:03:31;;;;;;;23.95;13.55;;;7.00;99.90;;;;;;4987417;28;20057;-70
2024/02/14 01:05:56;;;;;;;23.48;11.80;;;7.00;99.90;;;;;;4989803;28;20052;-69
2024/02/14 01:08:22;;;;;;;22.47;12.90;;;7.10;99.90;;;;;;4991531;28;20513;-70
2024/02/14 01:10:51;;;;;;;25.63;13.43;;;7.10;99.90;;;;;;4990856;28;20026;-68
2024/02/14 01:13:18;;;;;;;23.25;11.75;;;7.10;99.90;;;;;;4990854;28;20042;-70
2024/02/14 01:15:44;;;;;;;22.00;11.40;;;7.10;99.90;;;;;;4989431;28;20034;-68
2024/02/14 01:18:10;;;;;;;24.50;11.30;;;7.10;99.90;;;;;;4990771;28;20080;-68
2024/02/14 01:20:35;;;;;;;25.67;11.88;;;7.10;99.90;;;;;;4990536;28;20150;-67
2024/02/14 01:23:01;;;;;;;21.43;11.87;;;7.10;99.90;;;;;;4990626;28;20113;-70
2024/02/14 01:25:27;;;;;;;21.83;12.03;;;7.10;99.90;;;;;;4990505;28;20057;-68
2024/02/14 01:27:52;;;;;;;20.13;11.70;;;7.10;99.90;;;;;;4990558;28;20262;-69
2024/02/14 01:30:19;;;;;;;21.43;10.83;;;7.10;99.90;;;;;;4990274;28;20045;-72
2024/02/14 01:32:44;;;;;;;18.55;11.25;;;7.10;99.90;;;;;;4990173;28;20034;-71
2024/02/14 01:35:10;;;;;;;19.73;10.30;;;7.10;99.90;;;;;;4990280;28;20041;-70
2024/02/14 01:37:36;;;;;;;25.27;11.03;;;7.10;99.90;;;;;;4990035;28;20132;-71
2024/02/14 01:40:02;;;;;;;28.27;11.60;;;7.20;99.90;;;;;;4989523;28;20301;-71
2024/02/14 01:42:28;;;;;;;;;;;7.20;99.90;;;;;;4990767;28;20026;-67
2024/02/14 01:44:56;;;;;;;16.45;9.93;;;7.20;99.90;;;;;;4990315;28;20372;-68
2024/02/14 01:47:22;;;;;;;16.83;9.52;;;7.20;99.90;;;;;;4990456;28;20049;-67
2024/02/14 01:49:48;;;;;;;19.90;10.83;;;7.20;99.90;;;;;;4990260;28;20077;-67
2024/02/14 01:52:14;;;;;;;22.88;10.85;;;7.20;99.90;;;;;;4991322;28;20084;-69
2024/02/14 01:54:41;;;;;;;24.67;10.55;;;7.20;99.90;;;;;;4990350;28;20038;-67
2024/02/14 01:57:08;;;;;;;21.00;10.10;;;7.20;99.90;;;;;;4989573;28;20394;-71
2024/02/14 01:59:35;;;;;;;22.77;10.77;;;7.10;99.90;;;;;;4989264;28;20041;-71
2024/02/14 02:02:01;;;;;;;18.65;9.98;;;7.10;99.90;;;;;;4980466;28;20545;-71
2024/02/14 02:04:26;;;;;;;18.30;10.60;;;7.10;99.90;;;;;;4972050;28;20027;-71
2024/02/14 02:06:56;;;;;;;16.83;10.10;;;7.10;99.90;;;;;;4970519;28;20510;-71
2024/02/14 02:09:22;;;;;;;20.20;9.45;;;7.00;99.90;;;;;;4970631;28;20118;-70
2024/02/14 02:12:00;;;;;;;24.33;9.73;;;7.00;99.90;;;;;;4969973;28;20030;-67
2024/02/14 02:14:26;;;;;;;22.10;9.20;;;6.90;99.90;;;;;;4970451;28;20502;-67
2024/02/14 02:16:52;;;;;;;17.27;8.55;;;6.90;99.90;;;;;;4969763;28;20029;-67
2024/02/14 02:19:17;;;;;;;14.73;9.10;;;6.80;99.90;;;;;;4970017;28;20030;-71
2024/02/14 02:21:45;;;;;;;17.55;9.18;;;6.70;99.90;;;;;;4970042;28;20046;-68
2024/02/14 02:24:11;;;;;;;17.45;9.63;;;6.70;99.90;;;;;;4969933;28;20035;-70
2024/02/14 02:26:37;;;;;;;14.52;7.93;;;6.70;99.90;;;;;;4969928;28;20387;-70
2024/02/14 02:29:04;;;;;;;13.77;8.43;;;6.60;99.90;;;;;;4952180;28;20514;-69
2024/02/14 02:31:30;;;;;;;17.50;9.00;;;6.60;99.90;;;;;;4969980;28;20081;-69
2024/02/14 02:33:56;;;;;;;14.27;8.30;;;6.60;99.90;;;;;;4969994;28;20046;-70
2024/02/14 02:36:23;;;;;;;15.67;8.40;;;6.60;99.90;;;;;;4970040;28;20635;-67
2024/02/14 02:38:49;;;;;;;13.52;7.95;;;6.50;99.90;;;;;;4952179;28;20035;-69
2024/02/14 02:41:15;;;;;;;13.82;7.72;;;6.40;99.90;;;;;;4969582;28;20045;-68
2024/02/14 02:43:41;;;;;;;15.45;7.90;;;6.40;99.90;;;;;;4969404;28;20099;-67
2024/02/14 02:46:09;;;;;;;18.07;8.63;;;6.30;99.90;;;;;;4969668;28;20390;-70
2024/02/14 02:48:35;;;;;;;13.88;7.80;;;6.40;99.90;;;;;;4969280;28;20022;-68
2024/02/14 02:51:01;;;;;;;;;;;6.40;99.90;;;;;;4969889;28;20082;-70
2024/02/14 02:53:26;;;;;;;17.27;7.43;;;6.40;99.90;;;;;;4969406;28;19909;-67
2024/02/14 02:55:54;;;;;;;16.73;7.60;;;6.30;99.90;;;;;;4969531;28;20518;-67
2024/02/14 02:58:21;;;;;;;12.25;7.40;;;6.30;99.90;;;;;;4951769;28;20041;-71
2024/02/14 03:00:49;;;;;;;15.70;7.82;;;6.20;99.90;;;;;;4969059;28;20339;-68
2024/02/14 03:03:15;;;;;;;18.73;9.68;;;6.20;99.90;;;;;;4971735;28;20089;-67
2024/02/14 03:05:44;;;;;;;16.30;8.25;;;6.10;99.90;;;;;;4969148;28;20027;-67
2024/02/14 03:08:15;;;;;;;17.17;7.88;;;6.10;99.90;;;;;;4969022;28;20030;-67
2024/02/14 03:10:42;;;;;;;13.50;7.70;;;6.00;99.90;;;;;;4969331;28;20040;-69
2024/02/14 03:13:14;;;;;;;17.20;8.38;;;5.90;99.90;;;;;;4969080;28;20565;-67
2024/02/14 03:15:39;;;;;;;16.40;8.75;;;6.00;99.90;;;;;;4968856;28;20039;-67
2024/02/14 03:18:09;;;;;;;13.43;8.13;;;6.00;99.90;;;;;;4951399;28;20142;-67
2024/02/14 03:20:35;;;;;;;17.40;8.40;;;6.10;99.90;;;;;;4968816;28;20049;-68
2024/02/14 03:23:03;;;;;;;17.88;7.75;;;6.20;99.90;;;;;;4969235;28;20030;-67
2024/02/14 03:25:29;;;;;;;18.77;8.07;;;6.20;99.90;;;;;;4969265;28;20041;-67
2024/02/14 03:27:57;;;;;;;15.48;7.55;;;6.30;99.90;;;;;;4968878;28;20058;-67
2024/02/14 03:30:22;;;;;;;20.65;11.38;;;6.20;99.90;;;;;;4969663;28;20510;-67
2024/02/14 03:32:49;;;;;;;34.30;19.93;;;6.10;99.90;;;;;;4969425;28;20085;-68
2024/02/14 03:35:15;;;;;;;35.80;17.05;;;6.10;99.90;;;;;;4971445;28;20039;-70
2024/02/14 03:37:41;;;;;;;22.42;12.40;;;6.00;99.90;;;;;;4968918;28;20031;-70
2024/02/14 03:40:07;;;;;;;;;;;5.90;99.90;;;;;;4969003;28;20047;-71
2024/02/14 03:42:34;;;;;;;19.05;10.82;;;5.80;99.90;;;;;;4968668;28;20382;-71
2024/02/14 03:45:05;;;;;;;18.80;10.05;;;5.80;99.90;;;;;;4967746;28;20031;-70
2024/02/14 03:47:32;;;;;;;25.70;10.95;;;5.80;99.90;;;;;;4968807;28;20427;-70
2024/02/14 03:49:58;;;;;;;24.08;12.60;;;5.80;99.90;;;;;;4968747;28;20027;-72
2024/02/14 03:52:24;;;;;;;29.58;11.85;;;5.80;99.90;;;;;;4968618;28;20034;-71
2024/02/14 03:54:50;;;;;;;25.57;13.57;;;5.80;99.90;;;;;;4968543;28;20045;-70
2024/02/14 03:57:17;;;;;;;25.13;13.52;;;5.80;99.90;;;;;;4968738;28;20262;-70
2024/02/14 03:59:43;;;;;;;34.22;13.63;;;5.60;99.90;;;;;;4968385;28;20038;-71
2024/02/14 04:02:09;;;;;;;21.67;13.68;;;5.60;99.90;;;;;;4968615;28;20054;-70
2024/02/14 04:04:39;;;;;;;24.95;12.63;;;5.50;99.90;;;;;;4968510;28;20078;-71
2024/02/14 04:07:05;;;;;;;30.60;12.95;;;5.50;99.90;;;;;;4968149;28;20525;-70
2024/02/14 04:09:33;;;;;;;22.38;13.07;;;5.40;99.90;;;;;;4968075;28;20035;-69
2024/02/14 04:11:58;;;;;;;26.10;12.52;;;5.50;99.90;;;;;;4964960;28;20023;-69
2024/02/14 04:14:24;;;;;;;22.17;12.50;;;5.40;99.90;;;;;;4968424;28;20419;-69
2024/02/14 04:16:49;;;;;;;19.57;12.03;;;5.30;99.90;;;;;;4950389;28;20035;-69
2024/02/14 04:19:17;;;;;;;20.13;12.17;;;5.40;99.90;;;;;;4953955;28;20031;-71
2024/02/14 04:21:43;;;;;;;27.88;12.35;;;5.30;99.90;;;;;;4955693;28;20090;-69
2024/02/14 04:24:09;;;;;;;24.35;13.57;;;5.20;99.90;;;;;;4956416;28;20122;-69
2024/02/14 04:26:35;;;;;;;24.35;13.13;;;5.20;99.90;;;;;;4955366;28;20034;-69
2024/02/14 04:29:01;;;;;;;27.65;12.18;;;5.20;99.90;;;;;;4949940;28;20528;-70
2024/02/14 04:31:29;;;;;;;26.02;12.85;;;5.10;99.90;;;;;;4957854;28;20089;-70
2024/02/14 04:33:55;;;;;;;25.35;13.70;;;5.10;99.90;;;;;;4956834;28;20078;-70
2024/02/14 04:36:22;;;;;;;22.08;11.57;;;5.20;99.90;;;;;;4956724;28;20031;-69
2024/02/14 04:38:49;;;;;;;21.67;12.02;;;5.30;99.90;;;;;;4958030;28;20038;-68
2024/02/14 04:41:15;;;;;;;30.50;12.25;;;5.30;99.90;;;;;;4972649;28;20050;-67
2024/02/14 04:43:41;;;;;;;22.85;10.63;;;5.30;99.90;;;;;;4981695;28;20041;-67
2024/02/14 04:46:08;;;;;;;22.40;9.70;;;5.30;99.90;;;;;;4981204;28;20035;-66
2024/02/14 04:48:37;;;;;;;21.83;11.38;;;5.40;99.90;;;;;;4971492;28;22795;-66
2024/02/14 04:51:07;;;;;;;20.33;10.38;;;5.40;99.90;;;;;;4980576;28;20034;-69
2024/02/14 04:53:33;;;;;;;20.75;8.73;;;5.40;99.90;;;;;;4981086;28;20035;-67
2024/02/14 04:55:58;;;;;;;14.20;8.90;;;5.30;99.90;;;;;;4982058;28;20512;-68
2024/02/14 04:58:26;;;;;;;21.65;10.00;;;5.30;99.90;;;;;;4981894;28;20049;-68
2024/02/14 05:00:51;;;;;;;14.13;8.63;;;5.30;99.90;;;;;;4980175;28;20026;-69
2024/02/14 05:03:17;;;;;;;15.10;8.13;;;5.40;99.90;;;;;;4983460;28;20367;-68
2024/02/14 05:05:43;;;;;;;20.07;9.20;;;5.30;99.90;;;;;;4979759;28;20034;-70
2024/02/14 05:08:08;;;;;;;16.17;9.07;;;5.30;99.90;;;;;;4983423;28;20494;-70
2024/02/14 05:10:34;;;;;;;17.97;7.60;;;5.30;99.90;;;;;;4977408;28;20094;-67
2024/02/14 05:13:01;;;;;;;18.97;9.77;;;5.30;99.90;;;;;;4982358;28;20045;-67
2024/02/14 05:15:26;;;;;;;19.17;9.43;;;5.30;99.90;;;;;;4979594;28;20597;-69
2024/02/14 05:17:52;;;;;;;14.25;8.13;;;5.30;99.90;;;;;;4974274;28;20119;-67
2024/02/14 05:20:18;;;;;;;18.70;7.57;;;5.30;99.90;;;;;;4981787;28;20046;-69
2024/02/14 05:22:44;;;;;;;17.50;7.50;;;5.50;99.90;;;;;;4977132;28;20053;-68
2024/02/14 05:25:10;;;;;;;21.35;7.95;;;5.50;99.90;;;;;;4980341;28;20031;-68
2024/02/14 05:27:36;;;;;;;21.00;7.63;;;5.50;99.90;;;;;;4978559;28;20030;-69
2024/02/14 05:30:06;;;;;;;23.27;8.20;;;5.50;99.90;;;;;;4981050;28;20030;-68
2024/02/14 05:32:32;;;;;;;13.43;7.25;;;5.50;99.90;;;;;;4980526;28;20077;-70
2024/02/14 05:34:58;;;;;;;13.98;7.13;;;5.50;99.90;;;;;;4978815;28;20494;-69
2024/02/14 05:37:24;;;;;;;15.13;7.47;;;5.50;99.90;;;;;;4978969;28;20053;-69
2024/02/14 05:39:50;;;;;;;10.97;6.53;;;5.50;99.90;;;;;;4978398;28;20073;-70
2024/02/14 05:42:18;;;;;;;11.98;6.90;;;5.50;99.90;;;;;;4978540;28;20043;-69
2024/02/14 05:44:44;;;;;;;12.98;7.22;;;5.50;99.90;;;;;;4980077;28;20197;-68
2024/02/14 05:47:11;;;;;;;17.05;7.18;;;5.50;99.90;;;;;;4980538;28;20031;-66
2024/02/14 05:49:38;;;;;;;13.63;6.32;;;5.40;99.90;;;;;;4979027;28;20073;-68
2024/02/14 05:52:04;;;;;;;17.00;6.93;;;5.40;99.90;;;;;;4978999;28;20026;-69
2024/02/14 05:54:29;;;;;;;13.60;6.35;;;5.40;99.90;;;;;;4979890;28;20041;-68
2024/02/14 05:56:56;;;;;;;16.77;7.13;;;5.30;99.90;;;;;;4980893;28;20038;-67
2024/02/14 05:59:22;;;;;;;11.80;6.28;;;5.30;99.90;;;;;;4979743;28;20465;-69
2024/02/14 06:01:47;;;;;;;14.63;7.00;;;5.40;99.90;;;;;;4979994;28;20038;-68
2024/02/14 06:04:13;;;;;;;14.70;6.40;;;5.30;99.90;;;;;;4979007;28;20027;-67
2024/02/14 06:06:39;;;;;;;15.57;6.68;;;5.30;99.90;;;;;;4977964;28;20043;-69
2024/02/14 06:09:09;;;;;;;14.60;6.57;;;5.30;99.90;;;;;;4978336;28;20042;-68
2024/02/14 06:11:42;;;;;;;17.30;6.50;;;5.30;99.90;;;;;;4980247;28;20294;-70
2024/02/14 06:14:08;;;;;;;15.63;7.03;;;5.40;99.90;;;;;;4975921;28;20030;-70
2024/02/14 06:16:34;;;;;;;20.50;6.60;;;5.40;99.90;;;;;;4979276;28;20049;-69
2024/02/14 06:19:00;;;;;;;12.43;5.82;;;5.40;99.90;;;;;;4980213;28;20035;-70
2024/02/14 06:21:26;;;;;;;14.05;6.85;;;5.40;99.90;;;;;;4979889;28;20038;-69
2024/02/14 06:23:53;;;;;;;16.25;6.53;;;5.40;99.90;;;;;;4978153;28;20045;-69
2024/02/14 06:26:19;;;;;;;;;;;5.40;99.90;;;;;;4978161;28;20361;-69
2024/02/14 06:28:45;;;;;;;13.95;6.25;;;5.40;99.90;;;;;;4974873;28;19925;-69
2024/02/14 06:31:10;;;;;;;15.73;8.18;;;5.30;99.90;;;;;;4978299;28;20034;-67
2024/02/14 06:33:36;;;;;;;14.37;7.07;;;5.20;99.90;;;;;;4976895;28;20096;-67
2024/02/14 06:36:02;;;;;;;14.37;7.10;;;5.10;99.90;;;;;;4977656;28;20502;-69
2024/02/14 06:38:28;;;;;;;17.63;6.78;;;5.10;99.90;;;;;;4980637;28;20055;-68
2024/02/14 06:40:53;;;;;;;15.23;6.90;;;5.10;99.90;;;;;;4978934;28;20092;-68
2024/02/14 06:43:19;;;;;;;18.50;7.27;;;5.10;99.90;;;;;;4977882;28;20042;-69
2024/02/14 06:45:45;;;;;;;15.35;7.82;;;5.10;99.90;;;;;;4977443;28;20333;-69
2024/02/14 06:48:11;;;;;;;18.90;8.68;;;5.10;99.90;;;;;;4971479;28;20027;-68
2024/02/14 06:50:36;;;;;;;15.38;7.28;;;5.10;99.90;;;;;;4979708;28;20175;-66
2024/02/14 06:53:02;;;;;;;15.17;8.03;;;5.10;99.90;;;;;;4977372;28;20410;-66
2024/02/14 06:55:30;;;;;;;19.65;7.60;;;5.00;99.90;;;;;;4977867;28;20030;-66
2024/02/14 06:57:56;;;;;;;18.23;7.47;;;5.00;99.90;;;;;;4978093;28;20065;-66
2024/02/14 07:00:22;;;;;;;12.57;7.05;;;5.00;99.90;;;;;;4977417;28;20406;-66
2024/02/14 07:02:48;;;;;;;10.07;6.23;;;5.10;99.90;;;;;;4981360;28;20035;-69
2024/02/14 07:05:14;;;;;;;19.27;7.15;;;5.20;99.90;;;;;;4980140;28;20446;-69
2024/02/14 07:07:40;;;;;;;;;;;5.20;99.90;;;;;;4979591;28;20039;-69
2024/02/14 07:10:06;;;;;;;15.75;6.95;;;5.40;99.90;;;;;;4959221;28;20421;-67
2024/02/14 07:12:32;;;;;;;15.38;7.05;;;5.40;99.90;;;;;;4978664;28;20394;-69
2024/02/14 07:14:58;;;;;;;16.10;6.55;;;5.40;99.90;;;;;;4979123;28;20788;-69
2024/02/14 07:17:24;;;;;;;13.60;6.50;;;5.40;99.90;;;;;;4970175;28;20455;-67
2024/02/14 07:19:49;;;;;;;26.43;8.73;;;5.40;99.90;;;;;;4978939;28;20123;-68
2024/02/14 07:22:21;;;;;;;19.93;7.77;;;5.40;99.90;;;;;;4979882;28;20308;-68
2024/02/14 07:24:47;;;;;;;18.70;6.50;;;5.30;99.90;;;;;;4978040;28;20269;-69
2024/02/14 07:27:14;;;;;;;16.17;6.85;;;5.40;99.90;;;;;;4978616;28;20027;-67
2024/02/14 07:29:39;;;;;;;15.70;6.75;;;5.30;99.90;;;;;;4979087;28;20407;-67
2024/02/14 07:32:06;;;;;;;12.65;6.85;;;5.40;99.90;;;;;;4978620;28;20037;-68
2024/02/14 07:34:32;;;;;;;13.68;6.15;;;5.50;99.90;;;;;;4976926;28;20034;-67
2024/02/14 07:36:58;;;;;;;14.30;6.13;;;5.60;99.90;;;;;;4977671;28;20018;-66
2024/02/14 07:39:23;;;;;;;19.23;6.68;;;5.80;99.90;;;;;;4977322;28;20042;-70
2024/02/14 07:41:49;;;;;;;21.93;7.33;;;5.90;99.90;;;;;;4978736;28;20042;-71
2024/02/14 07:44:15;;;;;;;17.27;6.27;;;5.90;99.90;;;;;;4976972;28;20031;-69
2024/02/14 07:46:40;;;;;;;21.17;6.97;;;5.90;99.90;;;;;;4953524;28;20073;-67
2024/02/14 07:49:06;;;;;;;16.13;7.23;;;5.90;99.90;;;;;;4975097;28;20088;-71
2024/02/14 07:51:37;;;;;;;16.70;8.25;;;6.00;99.90;;;;;;4976614;28;20046;-70
2024/02/14 07:54:04;;;;;;;22.75;7.13;;;6.00;99.90;;;;;;4976285;28;20043;-71
2024/02/14 07:56:29;;;;;;;;;;;6.00;99.90;;;;;;4977103;28;20042;-67
2024/02/14 07:58:55;;;;;;;22.08;7.22;;;6.20;99.90;;;;;;4978317;28;19914;-70
2024/02/14 08:01:21;;;;;;;15.80;7.43;;;6.50;99.90;;;;;;4978105;28;20042;-70
2024/02/14 08:03:47;;;;;;;12.47;6.63;;;7.50;99.90;;;;;;4976445;28;20161;-70
2024/02/14 08:06:13;;;;;;;14.60;7.93;;;8.80;99.90;;;;;;4976844;28;20038;-71
2024/02/14 08:08:39;;;;;;;12.00;6.15;;;11.00;94.10;;;;;;4977952;28;20030;-70
2024/02/14 08:11:04;;;;;;;14.40;6.30;;;12.00;87.50;;;;;;4978040;28;20042;-69
2024/02/14 08:13:30;;;;;;;10.73;5.00;;;12.60;84.40;;;;;;4975683;28;20026;-71
2024/02/14 08:15:56;;;;;;;22.73;5.77;;;12.90;79.70;;;;;;4980375;28;20121;-72
2024/02/14 08:18:22;;;;;;;18.40;6.43;;;13.90;75.80;;;;;;4983532;28;20026;-71
2024/02/14 08:20:48;;;;;;;11.23;5.40;;;14.00;74.60;;;;;;4982493;28;20537;-71
2024/02/14 08:23:14;;;;;;;12.67;5.60;;;14.80;72.40;;;;;;4971001;28;20030;-71
2024/02/14 08:25:41;;;;;;;18.23;6.90;;;14.00;71.40;;;;;;4982343;28;20039;-70
2024/02/14 08:28:07;;;;;;;8.75;5.47;;;15.20;70.10;;;;;;4984512;28;20062;-71
2024/02/14 08:30:33;;;;;;;14.93;6.30;;;15.40;68.70;;;;;;4969753;28;20108;-70
2024/02/14 08:32:59;;;;;;;8.82;5.32;;;16.90;65.50;;;;;;4978701;28;20064;-70
2024/02/14 08:35:25;;;;;;;10.13;5.55;;;17.50;64.30;;;;;;4980814;28;20057;-69
2024/02/14 08:37:50;;;;;;;16.13;6.23;;;18.50;64.80;;;;;;4960017;28;20688;-70
2024/02/14 08:40:16;;;;;;;10.33;5.87;;;18.00;61.10;;;;;;4980753;28;20041;-74
2024/02/14 08:42:41;;;;;;;11.77;5.23;;;17.60;61.70;;;;;;4982819;28;20037;-69
2024/02/14 08:45:08;;;;;;;12.73;6.50;;;18.90;62.00;;;;;;4984838;28;20037;-69
2024/02/14 08:47:34;;;;;;;22.50;8.57;;;19.20;60.80;;;;;;4983383;28;20035;-71
2024/02/14 08:50:00;;;;;;;18.73;8.10;;;19.70;61.40;;;;;;4978063;28;20035;-67
2024/02/14 08:52:25;;;;;;;11.63;7.22;;;20.10;60.00;;;;;;4981016;28;20062;-68
2024/02/14 08:54:51;;;;;;;20.07;7.77;;;20.60;59.50;;;;;;4981594;28;20117;-69
2024/02/14 08:57:18;;;;;;;23.23;8.57;;;20.70;59.70;;;;;;4980743;28;20038;-70
2024/02/14 08:59:47;;;;;;;20.55;8.50;;;21.00;60.10;;;;;;4979840;28;20041;-71
2024/02/14 09:02:13;;;;;;;16.58;8.63;;;21.20;59.10;;;;;;4963247;28;20046;-70
2024/02/14 09:04:40;;;;;;;15.90;9.35;;;21.30;58.30;;;;;;4980009;28;20058;-70
2024/02/14 09:07:07;;;;;;;15.95;8.80;;;21.30;59.10;;;;;;4979224;28;20441;-70
2024/02/14 09:09:33;;;;;;;19.38;9.20;;;21.30;58.90;;;;;;4984703;28;20042;-68
2024/02/14 09:12:02;;;;;;;13.57;8.68;;;20.80;59.30;;;;;;4978002;28;20036;-70
2024/02/14 09:14:28;;;;;;;15.88;8.60;;;20.90;57.70;;;;;;4981219;28;20046;-69
2024/02/14 09:16:54;;;;;;;12.55;8.07;;;21.30;58.40;;;;;;4977949;28;20073;-67
2024/02/14 09:19:19;;;;;;;15.20;8.00;;;21.50;57.80;;;;;;4979504;28;20498;-70
2024/02/14 09:21:45;;;;;;;12.37;8.30;;;22.00;57.20;;;;;;4979091;28;20043;-70
2024/02/14 09:24:11;;;;;;;11.33;7.77;;;22.70;55.10;;;;;;4976686;28;20031;-68
2024/02/14 09:26:38;;;;;;;14.48;8.20;;;22.60;56.00;;;;;;4982724;28;20305;-68
2024/02/14 09:29:03;;;;;;;10.63;6.65;;;22.90;55.60;;;;;;4979619;28;20056;-71
2024/02/14 09:31:29;;;;;;;17.42;7.40;;;22.70;55.00;;;;;;4979554;28;20038;-70
2024/02/14 09:33:57;;;;;;;13.27;7.13;;;22.60;54.80;;;;;;4979668;28;20042;-68
2024/02/14 09:36:24;;;;;;;11.77;7.15;;;22.20;55.70;;;;;;4979805;28;20039;-70
2024/02/14 09:38:51;;;;;;;;;;;21.60;56.00;;;;;;4980600;28;20290;-71
2024/02/14 09:41:28;;;;;;;9.77;6.30;;;20.40;57.60;;;;;;4981317;28;19921;-70
2024/02/14 09:43:54;;;;;;;10.48;6.68;;;18.90;59.40;;;;;;4979174;28;20199;-70
2024/02/14 09:46:24;;;;;;;13.07;6.50;;;18.50;61.00;;;;;;4978583;28;20034;-71
2024/02/14 09:48:50;;;;;;;16.13;6.35;;;18.00;62.50;;;;;;4973098;28;20510;-71
2024/02/14 09:51:16;;;;;;;;;;;17.70;61.60;;;;;;4982829;28;20410;-71
2024/02/14 09:53:41;;;;;;;14.23;6.00;;;17.00;64.20;;;;;;4981668;28;19992;-71
2024/02/14 09:56:11;;;;;;;13.45;5.55;;;16.60;63.10;;;;;;4981353;28;20027;-71
2024/02/14 09:58:36;;;;;;;12.13;5.90;;;16.70;64.60;;;;;;4978878;28;20049;-71
2024/02/14 10:01:02;;;;;;;8.25;5.70;;;17.20;63.80;;;;;;4978564;28;20469;-69
2024/02/14 10:03:28;;;;;;;10.18;5.85;;;18.00;61.80;;;;;;4983683;28;20112;-69
2024/02/14 10:05:54;;;;;;;9.43;5.23;;;17.60;61.70;;;;;;4981092;28;20041;-69
2024/02/14 10:08:20;;;;;;;14.73;6.47;;;17.70;63.00;;;;;;4982579;28;20045;-68
2024/02/14 10:10:46;;;;;;;10.10;5.38;;;18.60;61.20;;;;;;4982794;28;20449;-69
2024/02/14 10:13:12;;;;;;;12.82;4.80;;;18.30;59.90;;;;;;4983385;28;20034;-69
2024/02/14 10:15:38;;;;;;;10.37;5.83;;;16.80;62.90;;;;;;4982435;28;20026;-69
2024/02/14 10:18:04;;;;;;;13.18;6.43;;;15.50;65.30;;;;;;4986010;28;20030;-68
2024/02/14 10:20:30;;;;;;;7.45;4.50;;;14.70;67.50;;;;;;4983742;28;20659;-69
2024/02/14 10:23:03;;;;;;;15.90;7.97;;;14.90;68.30;;;;;;4981083;28;20022;-69
2024/02/14 10:25:33;;;;;;;9.27;5.20;;;16.30;66.20;;;;;;4979648;28;20470;-69
2024/02/14 10:28:08;;;;;;;10.00;4.60;;;16.90;64.20;;;;;;4983040;28;20053;-69
2024/02/14 10:30:35;;;;;;;8.05;4.90;;;17.40;63.20;;;;;;4979448;28;20494;-68
2024/02/14 10:33:03;;;;;;;7.63;4.47;;;17.50;64.10;;;;;;4982135;28;20625;-69
2024/02/14 10:35:31;;;;;;;6.47;3.70;;;17.10;61.30;;;;;;4978970;28;20109;-69
2024/02/14 10:38:01;;;;;;;9.05;4.13;;;16.70;63.70;;;;;;4986377;28;20027;-69
2024/02/14 10:40:32;;;;;;;8.65;3.45;;;16.40;62.00;;;;;;4981125;28;20129;-68
2024/02/14 10:42:59;;;;;;;6.53;3.47;;;15.90;62.80;;;;;;4975390;28;20126;-69
2024/02/14 10:45:26;;;;;;;10.03;4.03;;;15.60;64.90;;;;;;4977897;28;20576;-69
2024/02/14 10:47:57;;;;;;;9.23;4.15;;;15.70;64.30;;;;;;4974638;28;20051;-69
2024/02/14 10:50:24;;;;;;;9.55;3.80;;;15.90;65.10;;;;;;4979492;28;20126;-68
2024/02/14 10:52:56;;;;;;;6.55;3.50;;;16.00;64.40;;;;;;4974433;28;20376;-69
2024/02/14 10:55:26;;;;;;;7.47;3.88;;;16.10;64.30;;;;;;4981746;28;20034;-68
2024/02/14 10:57:54;;;;;;;6.75;3.83;;;16.10;64.90;;;;;;4980597;28;20395;-69
2024/02/14 11:00:20;;;;;;;6.05;3.58;;;16.20;64.80;;;;;;4983921;28;20053;-67
2024/02/14 11:02:47;;;;;;;7.15;3.97;;;16.10;63.70;;;;;;4978297;28;20117;-68
2024/02/14 11:05:16;;;;;;;8.77;4.35;;;16.20;65.20;;;;;;4979426;28;20035;-68
2024/02/14 11:07:46;;;;;;;15.57;4.13;;;16.20;64.60;;;;;;4979512;28;20057;-71
2024/02/14 11:10:16;;;;;;;7.00;4.03;;;16.00;64.20;;;;;;4979819;28;20049;-68
2024/02/14 11:12:42;;;;;;;10.05;4.75;;;15.80;65.30;;;;;;4977963;28;20454;-69
2024/02/14 11:15:29;;;;;;;7.18;4.35;;;15.60;67.20;;;;;;4981304;28;20034;-70
2024/02/14 11:18:04;;;;;;;7.60;4.75;;;15.50;65.90;;;;;;4981253;28;20430;-69
2024/02/14 11:20:35;;;;;;;7.65;4.28;;;15.60;66.40;;;;;;4985122;28;20081;-69
2024/02/14 11:23:06;;;;;;;9.73;4.88;;;15.50;64.90;;;;;;4986757;28;20097;-70
2024/02/14 11:25:36;;;;;;;6.80;3.72;;;15.60;65.50;;;;;;4978862;28;20041;-71
2024/02/14 11:28:14;;;;;;;8.07;4.25;;;15.60;66.00;;;;;;4978627;28;20109;-69
2024/02/14 11:30:41;;;;;;;10.50;3.72;;;15.50;66.40;;;;;;4978078;28;20034;-68
2024/02/14 11:33:14;;;;;;;6.72;4.03;;;15.50;67.00;;;;;;4975689;28;20030;-71
2024/02/14 11:35:43;;;;;;;13.43;3.92;;;15.40;66.80;;;;;;4976756;28;20031;-69
2024/02/14 11:38:09;;;;;;;9.18;3.92;;;15.30;68.00;;;;;;4974893;28;20038;-71
2024/02/14 11:40:39;;;;;;;8.82;3.88;;;15.50;70.70;;;;;;4970588;28;20080;-70
2024/02/14 11:43:14;;;;;;;9.00;4.28;;;15.70;77.80;;;;;;4995999;28;20517;-70
2024/02/14 11:45:41;;;;;;;7.65;4.22;;;15.70;77.60;;;;;;5002252;28;20037;-69
2024/02/14 11:48:09;;;;;;;7.60;3.83;;;15.90;72.50;;;;;;4995788;28;20046;-70
2024/02/14 11:50:35;;;;;;;7.75;4.55;;;16.00;72.10;;;;;;5001799;28;20101;-70
2024/02/14 11:53:01;;;;;;;6.97;3.63;;;15.80;71.40;;;;;;4997914;28;20482;-71
2024/02/14 11:55:32;;;;;;;6.70;4.15;;;15.70;72.00;;;;;;5001594;28;20521;-69
2024/02/14 11:57:58;;;;;;;7.18;3.95;;;15.60;72.30;;;;;;4997237;28;20034;-69
2024/02/14 12:00:24;;;;;;;5.93;3.58;;;15.40;71.20;;;;;;5003386;28;20049;-69
2024/02/14 12:02:51;;;;;;;7.05;3.97;;;15.20;68.80;;;;;;4999629;28;20034;-70
2024/02/14 12:05:17;;;;;;;6.75;3.20;;;15.30;69.20;;;;;;4995462;28;20127;-68
2024/02/14 12:07:43;;;;;;;9.02;3.40;;;15.40;68.10;;;;;;4999686;28;20058;-68
2024/02/14 12:10:09;;;;;;;5.30;3.25;;;15.50;67.80;;;;;;4997380;28;20034;-68
2024/02/14 12:12:36;;;;;;;9.65;3.65;;;15.50;68.60;;;;;;5001474;28;20040;-68
2024/02/14 12:15:02;;;;;;;7.65;3.25;;;15.70;68.60;;;;;;5000057;28;20041;-69
2024/02/14 12:17:29;;;;;;;7.28;3.58;;;15.80;69.10;;;;;;5002936;28;20038;-72
2024/02/14 12:20:09;;;;;;;8.80;3.25;;;15.80;67.60;;;;;;4996257;28;20048;-70
2024/02/14 12:22:35;;;;;;;6.50;2.88;;;15.80;66.40;;;;;;4992401;28;20042;-71
2024/02/14 12:25:01;;;;;;;5.88;2.78;;;15.70;70.40;;;;;;4975441;28;20037;-74
2024/02/14 12:27:26;;;;;;;5.03;2.88;;;15.70;69.20;;;;;;4996411;28;20582;-70
2024/02/14 12:29:52;;;;;;;4.63;2.47;;;15.70;63.40;;;;;;4997111;28;20034;-72
2024/02/14 12:32:18;;;;;;;6.17;2.60;;;15.80;64.20;;;;;;4994082;28;20030;-70
2024/02/14 12:34:44;;;;;;;4.30;2.45;;;15.80;66.00;;;;;;4984356;28;20145;-70
2024/02/14 12:37:11;;;;;;;4.00;2.00;;;15.80;65.10;;;;;;4999209;28;20049;-71
2024/02/14 12:39:37;;;;;;;4.40;2.22;;;15.80;67.80;;;;;;4994306;28;20046;-70
2024/02/14 12:42:04;;;;;;;7.75;3.35;;;15.90;68.30;;;;;;4993209;28;20514;-69